createdAt,value
2022-08-26T00:00:07.446Z,16.5
2022-08-26T00:10:07.558Z,16.5
2022-08-26T00:20:07.443Z,16
2022-08-26T00:30:07.552Z,16
2022-08-26T00:40:07.506Z,16
2022-08-26T00:50:07.535Z,17
2022-08-26T01:00:07.447Z,17
2022-08-26T01:10:07.548Z,17
2022-08-26T01:20:07.451Z,17
2022-08-26T01:30:07.552Z,17
2022-08-26T01:40:07.665Z,17
2022-08-26T01:50:07.549Z,17
2022-08-26T02:00:07.644Z,17
2022-08-26T02:10:07.549Z,17
2022-08-26T02:20:07.653Z,17
2022-08-26T02:30:07.551Z,16.5
2022-08-26T02:40:07.676Z,17
2022-08-26T02:50:07.548Z,16.5
2022-08-26T03:00:07.647Z,16.5
2022-08-26T03:10:08.422Z,17
2022-08-26T03:20:07.643Z,17
2022-08-26T03:30:07.749Z,16.5
2022-08-26T03:40:07.756Z,17
2022-08-26T03:50:07.765Z,16.5
2022-08-26T04:00:07.636Z,16.5
2022-08-26T04:10:07.744Z,15.5
2022-08-26T04:20:07.648Z,15.5
2022-08-26T04:30:07.741Z,15.5
2022-08-26T04:40:07.677Z,15.5
2022-08-26T04:50:07.735Z,15.5
2022-08-26T05:00:07.831Z,15.5
2022-08-26T05:10:08.695Z,15.5
2022-08-26T05:20:07.833Z,16
2022-08-26T05:30:07.729Z,16
2022-08-26T05:40:07.860Z,15.5
2022-08-26T05:50:07.727Z,16
2022-08-26T06:00:07.831Z,16
2022-08-26T06:10:30.838Z,16
2022-08-26T06:20:07.822Z,15.5
2022-08-26T06:30:07.913Z,16
2022-08-26T06:40:07.853Z,17
2022-08-26T06:50:07.909Z,18
2022-08-26T07:00:07.813Z,17
2022-08-26T07:10:07.911Z,18
2022-08-26T07:20:07.808Z,18
2022-08-26T07:30:07.909Z,18.5
2022-08-26T07:40:08.078Z,20
2022-08-26T07:50:07.902Z,20
2022-08-26T08:00:07.994Z,20
2022-08-26T08:10:09.848Z,21.5
2022-08-26T08:20:07.989Z,22
2022-08-26T08:30:07.878Z,21.5
2022-08-26T08:40:08.037Z,23.5
2022-08-26T08:50:07.896Z,26
2022-08-26T09:00:08.331Z,26.5
2022-08-26T09:10:08.020Z,29.5
2022-08-26T09:20:07.917Z,30.5
2022-08-26T09:30:08.011Z,30
2022-08-26T09:40:08.145Z,26
2022-08-26T09:50:09.504Z,26.5
2022-08-26T10:00:08.121Z,32
2022-08-26T10:10:08.018Z,27.5
2022-08-26T10:20:15.802Z,26
2022-08-26T10:30:07.994Z,25.5
2022-08-26T10:40:08.161Z,26
2022-08-26T10:50:08.216Z,25.5
2022-08-26T11:00:08.095Z,23
2022-08-26T11:10:08.740Z,24
2022-08-26T11:20:13.272Z,26
2022-08-26T11:30:08.192Z,26
2022-08-26T11:40:08.229Z,23.5
2022-08-26T11:50:08.185Z,25.5
2022-08-26T12:00:09.461Z,24.5
2022-08-26T12:10:08.175Z,24.5
2022-08-26T12:20:08.276Z,25
2022-08-26T12:30:08.429Z,26
2022-08-26T12:40:08.297Z,25.5
2022-08-26T12:50:08.169Z,25.5
2022-08-26T13:00:08.323Z,25.5
2022-08-26T13:10:08.160Z,26
2022-08-26T13:20:08.264Z,25.5
2022-08-26T13:30:08.165Z,26
2022-08-26T13:40:08.311Z,27
2022-08-26T13:50:08.447Z,27.5
2022-08-26T14:00:08.855Z,26.5
2022-08-26T14:10:08.387Z,26
2022-08-26T14:20:08.305Z,24.5
2022-08-26T14:30:08.365Z,24.5
2022-08-26T14:40:08.300Z,24
2022-08-26T14:50:08.341Z,24.5
2022-08-26T15:00:08.447Z,25
2022-08-26T15:10:08.350Z,25
2022-08-26T15:20:08.445Z,24.5
2022-08-26T15:30:08.330Z,25
2022-08-26T15:40:08.477Z,26
2022-08-26T15:50:08.354Z,25.5
2022-08-26T16:00:08.428Z,25
2022-08-26T16:10:08.320Z,24.5
2022-08-26T16:20:08.426Z,23.5
2022-08-26T16:30:08.515Z,23.5
2022-08-26T16:40:08.486Z,23.5
2022-08-26T16:50:08.549Z,23.5
2022-08-26T17:00:08.428Z,24
2022-08-26T17:10:08.557Z,23.5
2022-08-26T17:20:08.432Z,24
2022-08-26T17:30:08.567Z,23.5
2022-08-26T17:40:08.496Z,23.5
2022-08-26T17:50:08.574Z,22.5
2022-08-26T18:00:08.477Z,22.5
2022-08-26T18:10:12.585Z,22.5
2022-08-26T18:20:09.087Z,21.5
2022-08-26T18:30:13.464Z,21.5
2022-08-26T18:40:10.770Z,21.5
2022-08-26T18:50:08.549Z,20.5
2022-08-26T19:00:10.709Z,20.5
2022-08-26T19:10:09.486Z,20.5
2022-08-26T19:20:08.661Z,19.5
2022-08-26T19:30:08.588Z,19.5
2022-08-26T19:40:08.893Z,19.5
2022-08-26T19:50:08.572Z,19.5
2022-08-26T20:00:08.875Z,19
2022-08-26T20:10:08.839Z,18.5
2022-08-26T20:20:14.689Z,18.5
2022-08-26T20:30:08.865Z,18.5
2022-08-26T20:40:08.674Z,18.5
2022-08-26T20:50:08.740Z,18.5
2022-08-26T21:00:08.617Z,18.5
2022-08-26T21:10:08.710Z,18.5
2022-08-26T21:20:08.600Z,18.5
2022-08-26T21:30:08.732Z,18.5
2022-08-26T21:40:08.842Z,18.5
2022-08-26T21:50:08.706Z,18.5
2022-08-26T22:00:08.817Z,18.5
2022-08-26T22:10:08.713Z,19
2022-08-26T22:20:08.794Z,19
2022-08-26T22:30:08.700Z,19
2022-08-26T22:40:08.838Z,19
2022-08-26T22:50:08.883Z,19
2022-08-26T23:00:08.783Z,19
2022-08-26T23:10:08.884Z,19
2022-08-26T23:20:08.793Z,19
2022-08-26T23:30:08.886Z,19.5
2022-08-26T23:40:08.838Z,20
2022-08-26T23:50:08.885Z,20
